createdAt,value
2023-03-11T00:00:39.543Z,1.88
2023-03-11T00:03:08.601Z,1.95
2023-03-11T00:05:38.832Z,1.55
2023-03-11T00:08:07.996Z,1.95
2023-03-11T00:10:37.660Z,2.40
2023-03-11T00:13:06.658Z,2.28
2023-03-11T00:15:34.873Z,1.75
2023-03-11T00:18:03.944Z,1.52
2023-03-11T00:20:34.212Z,1.75
2023-03-11T00:23:02.696Z,2.50
2023-03-11T00:25:33.170Z,1.02
2023-03-11T00:28:00.811Z,1.13
2023-03-11T00:30:29.249Z,3.20
2023-03-11T00:32:58.415Z,1.98
2023-03-11T00:35:29.466Z,2.25
2023-03-11T00:37:58.790Z,1.10
2023-03-11T00:42:55.078Z,1.58
2023-03-11T00:45:22.859Z,3.05
2023-03-11T00:47:50.938Z,1.52
2023-03-11T00:50:21.575Z,1.40
2023-03-11T00:52:51.645Z,1.33
2023-03-11T00:55:21.413Z,1.98
2023-03-11T00:57:51.858Z,1.30
2023-03-11T01:00:22.364Z,1.67
2023-03-11T01:03:10.320Z,1.45
2023-03-11T01:05:38.355Z,2.45
2023-03-11T01:08:07.246Z,1.48
2023-03-11T01:10:35.719Z,1.30
2023-03-11T01:13:04.205Z,1.73
2023-03-11T01:15:33.530Z,1.70
2023-03-11T01:18:01.875Z,1.60
2023-03-11T01:20:29.447Z,2.83
2023-03-11T01:22:57.126Z,1.13
2023-03-11T01:25:26.158Z,1.67
2023-03-11T01:27:53.626Z,1.85
2023-03-11T01:30:23.655Z,2.42
2023-03-11T01:32:52.389Z,2.10
2023-03-11T01:35:22.649Z,1.55
2023-03-11T01:37:50.399Z,1.33
2023-03-11T01:40:24.344Z,2.47
2023-03-11T01:42:53.269Z,6.72
2023-03-11T01:45:36.915Z,1.77
2023-03-11T01:48:05.109Z,1.67
2023-03-11T01:50:37.107Z,1.65
2023-03-11T01:53:06.392Z,2.08
2023-03-11T01:55:34.628Z,2.28
2023-03-11T01:58:07.641Z,1.73
2023-03-11T02:00:37.260Z,2.10
2023-03-11T02:03:11.191Z,2.03
2023-03-11T02:05:40.090Z,3.70
2023-03-11T02:08:09.328Z,1.92
2023-03-11T02:10:39.499Z,1.42
2023-03-11T02:13:09.157Z,3.25
2023-03-11T02:15:39.544Z,2.30
2023-03-11T02:18:08.778Z,1.45
2023-03-11T02:23:14.820Z,1.48
2023-03-11T02:25:51.362Z,1.92
2023-03-11T02:30:50.376Z,0.98
2023-03-11T02:33:18.956Z,1.65
2023-03-11T02:35:47.737Z,2.15
2023-03-11T02:38:15.250Z,3.05
2023-03-11T02:40:51.778Z,2.85
2023-03-11T02:43:28.400Z,3.13
2023-03-11T02:45:56.524Z,2.60
2023-03-11T02:48:24.575Z,2.53
2023-03-11T02:50:52.293Z,1.60
2023-03-11T02:53:20.497Z,2.47
2023-03-11T02:55:48.026Z,1.80
2023-03-11T02:58:15.446Z,2.60
2023-03-11T03:00:44.383Z,1.65
2023-03-11T03:03:11.941Z,3.95
2023-03-11T03:05:40.176Z,1.40
2023-03-11T03:08:07.699Z,1.50
2023-03-11T03:10:35.225Z,2.78
2023-03-11T03:13:04.536Z,1.33
2023-03-11T03:15:32.307Z,1.90
2023-03-11T03:18:02.244Z,2.05
2023-03-11T03:20:30.422Z,1.40
2023-03-11T03:23:00.697Z,3.30
2023-03-11T03:25:31.381Z,2.55
2023-03-11T03:28:02.412Z,1.50
2023-03-11T03:30:32.429Z,4.97
2023-03-11T03:33:01.887Z,2.38
2023-03-11T03:35:30.929Z,2.05
2023-03-11T03:38:05.851Z,2.28
2023-03-11T03:40:33.851Z,1.70
2023-03-11T03:43:04.900Z,1.85
2023-03-11T03:45:33.534Z,2.90
2023-03-11T03:48:02.642Z,1.55
2023-03-11T03:50:33.798Z,5.18
2023-03-11T03:53:01.526Z,2.58
2023-03-11T03:55:28.937Z,2.13
2023-03-11T03:57:57.761Z,3.53
2023-03-11T04:00:29.162Z,2.90
2023-03-11T04:03:02.761Z,3.08
2023-03-11T04:05:41.042Z,2.17
2023-03-11T04:08:09.261Z,3.55
2023-03-11T04:10:36.715Z,2.90
2023-03-11T04:13:04.588Z,2.88
2023-03-11T04:15:32.774Z,2.50
2023-03-11T04:18:01.770Z,4.75
2023-03-11T04:20:29.304Z,3.67
2023-03-11T04:22:56.947Z,1.73
2023-03-11T04:25:25.411Z,3.13
2023-03-11T04:27:52.976Z,4.93
2023-03-11T04:30:21.634Z,2.80
2023-03-11T04:32:52.558Z,2.33
2023-03-11T04:35:21.563Z,2.97
2023-03-11T04:37:49.135Z,2.10
2023-03-11T04:40:17.595Z,5.78
2023-03-11T04:42:45.651Z,3.05
2023-03-11T04:45:13.339Z,2.92
2023-03-11T04:47:42.643Z,2.97
2023-03-11T04:50:10.801Z,3.47
2023-03-11T04:52:39.589Z,3.00
2023-03-11T04:55:08.990Z,5.88
2023-03-11T04:57:37.014Z,5.70
2023-03-11T05:00:10.692Z,4.25
2023-03-11T05:02:39.991Z,6.55
2023-03-11T05:05:09.657Z,4.85
2023-03-11T05:07:39.290Z,4.35
2023-03-11T05:10:09.011Z,1.83
2023-03-11T05:12:37.775Z,7.57
2023-03-11T05:15:06.384Z,2.80
2023-03-11T05:17:33.840Z,4.05
2023-03-11T05:20:01.329Z,3.38
2023-03-11T05:22:32.918Z,4.40
2023-03-11T05:25:02.285Z,2.60
2023-03-11T05:27:30.617Z,2.25
2023-03-11T05:29:58.513Z,1.90
2023-03-11T05:32:28.093Z,3.17
2023-03-11T05:34:56.161Z,3.40
2023-03-11T05:37:23.901Z,6.55
2023-03-11T05:39:53.143Z,2.67
2023-03-11T05:42:23.090Z,6.32
2023-03-11T05:44:54.077Z,4.43
2023-03-11T05:47:23.330Z,4.93
2023-03-11T05:49:51.049Z,4.30
2023-03-11T05:52:20.555Z,2.65
2023-03-11T05:54:50.148Z,4.85
2023-03-11T05:57:18.689Z,2.33
2023-03-11T05:59:47.508Z,3.95
2023-03-11T06:02:16.833Z,1.88
2023-03-11T06:04:44.907Z,3.35
2023-03-11T06:07:14.800Z,2.25
2023-03-11T06:09:43.661Z,3.45
2023-03-11T06:12:14.936Z,4.57
2023-03-11T06:20:11.051Z,3.55
2023-03-11T06:22:40.301Z,2.63
2023-03-11T06:25:09.345Z,4.75
2023-03-11T06:27:38.315Z,4.32
2023-03-11T06:30:08.141Z,2.45
2023-03-11T06:32:45.452Z,5.70
2023-03-11T06:35:13.657Z,3.00
2023-03-11T06:37:41.111Z,2.45
2023-03-11T06:40:11.037Z,2.20
2023-03-11T06:42:38.884Z,3.22
2023-03-11T06:45:09.271Z,6.78
2023-03-11T06:47:36.977Z,2.17
2023-03-11T06:50:09.257Z,3.05
2023-03-11T06:52:36.788Z,3.78
2023-03-11T06:55:05.062Z,3.05
2023-03-11T06:57:34.106Z,3.28
2023-03-11T07:00:07.759Z,3.45
2023-03-11T07:02:36.482Z,6.25
2023-03-11T07:05:05.280Z,5.55
2023-03-11T07:07:34.431Z,4.10
2023-03-11T07:10:03.864Z,6.18
2023-03-11T07:12:31.295Z,6.20
2023-03-11T07:14:59.326Z,9.02
2023-03-11T07:17:28.244Z,5.15
2023-03-11T07:19:55.997Z,5.68
2023-03-11T07:22:23.415Z,5.57
2023-03-11T07:24:52.396Z,10.35
2023-03-11T07:27:20.079Z,4.32
2023-03-11T07:29:47.772Z,3.63
2023-03-11T07:32:15.468Z,3.40
2023-03-11T07:34:42.909Z,4.15
2023-03-11T07:37:10.481Z,2.78
2023-03-11T07:39:39.300Z,2.30
2023-03-11T07:42:08.482Z,2.67
2023-03-11T07:44:36.895Z,3.22
2023-03-11T07:47:06.057Z,5.45
2023-03-11T07:49:34.525Z,2.47
2023-03-11T07:52:02.072Z,6.70
2023-03-11T07:54:29.487Z,4.38
2023-03-11T07:56:56.871Z,4.32
2023-03-11T07:59:26.328Z,4.40
2023-03-11T08:01:53.777Z,5.78
2023-03-11T08:04:21.190Z,4.28
2023-03-11T08:06:48.663Z,5.63
2023-03-11T08:09:16.122Z,3.53
2023-03-11T08:11:43.661Z,5.57
2023-03-11T08:14:11.172Z,4.90
2023-03-11T08:16:41.183Z,16.83
2023-03-11T08:19:11.455Z,4.60
2023-03-11T08:21:39.204Z,5.22
2023-03-11T08:24:07.335Z,2.85
2023-03-11T08:26:34.848Z,4.18
2023-03-11T08:29:02.381Z,5.15
2023-03-11T08:31:31.482Z,6.57
2023-03-11T08:34:02.744Z,7.07
2023-03-11T08:36:31.417Z,4.20
2023-03-11T08:38:59.258Z,4.20
2023-03-11T08:41:27.753Z,1.67
2023-03-11T08:43:55.330Z,3.08
2023-03-11T08:46:25.367Z,9.05
2023-03-11T08:48:53.419Z,6.95
2023-03-11T08:51:23.618Z,2.92
2023-03-11T08:53:51.870Z,3.85
2023-03-11T08:56:19.867Z,5.07
2023-03-11T08:58:47.652Z,3.65
2023-03-11T09:01:15.342Z,6.93
2023-03-11T09:03:42.919Z,7.93
2023-03-11T09:06:13.840Z,3.95
2023-03-11T09:08:43.168Z,5.55
2023-03-11T09:13:41.108Z,9.07
2023-03-11T09:16:12.112Z,4.75
2023-03-11T09:18:39.788Z,6.18
2023-03-11T09:21:07.636Z,4.35
2023-03-11T09:23:35.063Z,1.85
2023-03-11T09:26:04.792Z,2.78
2023-03-11T09:28:32.448Z,4.80
2023-03-11T09:30:59.871Z,5.10
2023-03-11T09:33:27.345Z,2.63
2023-03-11T09:35:54.899Z,3.10
2023-03-11T09:38:22.497Z,4.78
2023-03-11T09:41:00.022Z,5.45
2023-03-11T09:44:07.295Z,2.20
2023-03-11T09:47:02.150Z,5.28
2023-03-11T09:49:43.107Z,6.85
2023-03-11T09:52:12.593Z,3.75
2023-03-11T09:54:42.550Z,3.03
2023-03-11T09:57:14.843Z,1.77
2023-03-11T09:59:46.078Z,2.90
2023-03-11T10:02:17.395Z,4.75
2023-03-11T10:04:51.602Z,3.92
2023-03-11T10:07:24.280Z,5.32
2023-03-11T10:09:54.232Z,2.00
2023-03-11T10:12:38.362Z,3.35
2023-03-11T10:15:19.706Z,2.55
2023-03-11T10:17:58.739Z,4.18
2023-03-11T10:20:34.384Z,3.75
2023-03-11T10:23:12.807Z,4.57
2023-03-11T10:25:52.445Z,5.60
2023-03-11T10:28:22.560Z,3.83
2023-03-11T10:30:56.337Z,2.13
2023-03-11T10:33:29.502Z,4.53
2023-03-11T10:36:00.453Z,5.13
2023-03-11T10:38:32.325Z,3.50
2023-03-11T10:41:04.962Z,3.85
2023-03-11T10:43:37.227Z,2.67
2023-03-11T10:46:14.620Z,3.80
2023-03-11T10:48:42.299Z,4.22
2023-03-11T10:51:17.977Z,5.57
2023-03-11T10:53:46.735Z,1.95
2023-03-11T10:56:26.403Z,3.30
2023-03-11T10:58:54.857Z,8.35
2023-03-11T11:01:24.508Z,3.75
2023-03-11T11:03:55.919Z,2.33
2023-03-11T11:06:26.805Z,4.10
2023-03-11T11:09:13.389Z,2.15
2023-03-11T11:11:40.963Z,2.80
2023-03-11T11:14:10.147Z,2.50
2023-03-11T11:16:40.642Z,1.70
2023-03-11T11:19:10.649Z,2.92
2023-03-11T11:21:40.271Z,3.97
2023-03-11T11:24:18.364Z,1.80
2023-03-11T11:27:04.620Z,4.25
2023-03-11T11:29:34.050Z,3.70
2023-03-11T11:32:19.132Z,2.85
2023-03-11T11:35:00.915Z,2.65
2023-03-11T11:37:34.010Z,3.03
2023-03-11T11:40:11.477Z,3.15
2023-03-11T11:42:41.247Z,8.20
2023-03-11T11:45:14.729Z,1.98
2023-03-11T11:47:47.572Z,1.50
2023-03-11T11:50:20.784Z,3.08
2023-03-11T11:52:55.336Z,4.25
2023-03-11T11:55:25.236Z,3.97
2023-03-11T11:57:53.066Z,2.50
2023-03-11T12:00:24.934Z,2.00
2023-03-11T12:03:19.151Z,3.58
2023-03-11T12:05:57.895Z,4.10
2023-03-11T12:08:34.914Z,3.90
2023-03-11T12:11:06.405Z,2.38
2023-03-11T12:13:50.939Z,2.80
2023-03-11T12:16:30.207Z,1.85
2023-03-11T12:19:04.411Z,2.55
2023-03-11T12:21:47.488Z,5.05
2023-03-11T12:24:38.875Z,3.80
2023-03-11T12:27:18.587Z,3.85
2023-03-11T12:29:50.214Z,4.00
2023-03-11T12:32:25.456Z,2.05
2023-03-11T12:34:54.287Z,10.68
2023-03-11T12:37:23.412Z,5.03
2023-03-11T12:39:50.839Z,4.70
2023-03-11T12:42:21.772Z,2.97
2023-03-11T12:44:49.808Z,3.03
2023-03-11T12:47:23.151Z,3.30
2023-03-11T12:49:52.293Z,3.22
2023-03-11T12:52:24.432Z,3.28
2023-03-11T12:55:36.527Z,2.67
2023-03-11T12:58:34.317Z,1.70
2023-03-11T13:01:17.389Z,1.58
2023-03-11T13:03:55.729Z,3.50
2023-03-11T13:06:48.412Z,3.63
2023-03-11T13:09:17.616Z,1.98
2023-03-11T13:11:46.635Z,3.55
2023-03-11T13:14:31.504Z,2.75
2023-03-11T13:17:27.768Z,4.90
2023-03-11T13:19:56.716Z,2.03
2023-03-11T13:23:05.357Z,3.03
2023-03-11T13:25:38.782Z,2.47
2023-03-11T13:28:32.337Z,1.88
2023-03-11T13:31:16.771Z,3.38
2023-03-11T13:33:51.312Z,1.95
2023-03-11T13:36:32.329Z,5.07
2023-03-11T13:39:31.478Z,3.60
2023-03-11T13:42:00.913Z,2.55
2023-03-11T13:44:31.602Z,4.20
2023-03-11T13:47:05.159Z,2.60
2023-03-11T13:49:41.259Z,2.60
2023-03-11T13:52:14.374Z,3.30
2023-03-11T13:54:49.310Z,3.67
2023-03-11T13:57:25.506Z,3.55
2023-03-11T13:59:54.451Z,3.33
2023-03-11T14:02:24.641Z,4.43
2023-03-11T14:04:56.122Z,4.85
2023-03-11T14:07:30.006Z,2.78
2023-03-11T14:10:30.648Z,4.20
2023-03-11T14:13:16.126Z,6.50
2023-03-11T14:15:51.139Z,6.78
2023-03-11T14:18:31.568Z,3.85
2023-03-11T14:21:01.083Z,6.15
2023-03-11T14:23:32.875Z,2.17
2023-03-11T14:26:02.951Z,2.08
2023-03-11T14:28:36.287Z,4.72
2023-03-11T14:31:04.584Z,2.22
2023-03-11T14:33:32.154Z,5.35
2023-03-11T14:36:02.331Z,4.18
2023-03-11T14:38:31.942Z,4.72
2023-03-11T14:41:01.013Z,2.65
2023-03-11T14:43:37.684Z,3.20
2023-03-11T14:46:07.271Z,4.25
2023-03-11T14:48:37.260Z,6.20
2023-03-11T14:51:10.881Z,3.38
2023-03-11T14:53:42.581Z,3.50
2023-03-11T14:56:16.439Z,3.13
2023-03-11T14:58:58.486Z,7.18
2023-03-11T15:01:35.466Z,3.67
2023-03-11T15:04:08.663Z,3.80
2023-03-11T15:06:39.420Z,3.75
2023-03-11T15:09:10.356Z,2.67
2023-03-11T15:11:45.899Z,2.53
2023-03-11T15:14:22.271Z,2.92
2023-03-11T15:16:50.683Z,5.10
2023-03-11T15:19:23.045Z,3.90
2023-03-11T15:21:54.326Z,3.45
2023-03-11T15:24:25.252Z,2.45
2023-03-11T15:26:56.722Z,3.10
2023-03-11T15:29:27.504Z,6.88
2023-03-11T15:31:54.988Z,5.32
2023-03-11T15:34:26.453Z,5.47
2023-03-11T15:37:18.352Z,2.55
2023-03-11T15:39:48.320Z,2.70
2023-03-11T15:42:21.121Z,5.13
2023-03-11T15:45:02.113Z,2.25
2023-03-11T15:47:31.663Z,5.57
2023-03-11T15:50:06.793Z,2.83
2023-03-11T15:52:34.264Z,4.05
2023-03-11T15:55:01.869Z,3.53
2023-03-11T15:57:30.114Z,2.90
2023-03-11T16:00:01.082Z,3.45
2023-03-11T16:02:30.852Z,3.95
2023-03-11T16:04:59.547Z,3.33
2023-03-11T16:07:39.199Z,2.50
2023-03-11T16:10:08.031Z,4.90
2023-03-11T16:12:35.629Z,4.55
2023-03-11T16:15:19.578Z,3.00
2023-03-11T16:17:50.111Z,6.45
2023-03-11T16:20:18.709Z,5.18
2023-03-11T16:22:49.153Z,3.25
2023-03-11T16:25:21.754Z,3.60
2023-03-11T16:27:51.288Z,3.42
2023-03-11T16:30:20.931Z,4.00
2023-03-11T16:32:48.682Z,2.58
2023-03-11T16:35:18.151Z,3.50
2023-03-11T16:37:46.365Z,3.63
2023-03-11T16:40:16.626Z,6.90
2023-03-11T16:42:44.279Z,4.28
2023-03-11T16:45:13.531Z,5.20
2023-03-11T16:47:42.531Z,3.10
2023-03-11T16:50:11.508Z,5.85
2023-03-11T16:52:39.008Z,3.35
2023-03-11T16:55:07.279Z,4.18
2023-03-11T16:57:34.757Z,3.80
2023-03-11T17:00:03.684Z,2.83
2023-03-11T17:02:31.134Z,2.53
2023-03-11T17:05:00.056Z,4.93
2023-03-11T17:07:27.718Z,6.32
2023-03-11T17:09:55.368Z,2.95
2023-03-11T17:12:23.099Z,2.45
2023-03-11T17:14:50.473Z,3.50
2023-03-11T17:17:18.145Z,3.03
2023-03-11T17:19:45.961Z,3.50
2023-03-11T17:22:14.960Z,5.05
2023-03-11T17:24:42.829Z,3.13
2023-03-11T17:27:10.414Z,2.95
2023-03-11T17:29:37.805Z,4.28
2023-03-11T17:32:08.993Z,5.18
2023-03-11T17:34:36.373Z,2.97
2023-03-11T17:37:03.822Z,4.78
2023-03-11T17:39:32.684Z,4.10
2023-03-11T17:44:28.892Z,3.17
2023-03-11T17:46:57.781Z,3.72
2023-03-11T17:49:25.198Z,8.02
2023-03-11T17:51:52.693Z,9.15
2023-03-11T17:54:20.161Z,5.30
2023-03-11T17:56:48.989Z,5.40
2023-03-11T17:59:17.957Z,4.47
2023-03-11T18:01:45.514Z,6.00
2023-03-11T18:04:13.217Z,4.28
2023-03-11T18:06:40.715Z,3.40
2023-03-11T18:09:08.164Z,3.38
2023-03-11T18:11:36.088Z,4.80
2023-03-11T18:14:04.941Z,4.10
2023-03-11T18:19:03.046Z,5.22
2023-03-11T18:21:31.133Z,8.57
2023-03-11T18:24:00.116Z,8.80
2023-03-11T18:28:57.860Z,7.55
2023-03-11T18:33:56.798Z,5.32
2023-03-11T18:36:25.894Z,6.75
2023-03-11T18:41:22.181Z,7.55
2023-03-11T18:43:53.387Z,3.85
2023-03-11T18:46:20.979Z,6.18
2023-03-11T18:48:50.597Z,5.53
2023-03-11T18:51:18.065Z,6.45
2023-03-11T18:53:45.467Z,5.20
2023-03-11T18:56:14.609Z,4.55
2023-03-11T18:58:42.292Z,7.55
2023-03-11T19:01:12.504Z,13.65
2023-03-11T19:03:40.853Z,12.52
2023-03-11T19:06:10.918Z,12.80
2023-03-11T19:08:39.205Z,12.50
2023-03-11T19:11:07.390Z,12.52
2023-03-11T19:13:46.285Z,11.57
2023-03-11T19:16:16.385Z,8.32
2023-03-11T19:21:14.154Z,6.80
2023-03-11T19:23:41.926Z,7.63
2023-03-11T19:26:09.422Z,6.38
2023-03-11T19:28:36.967Z,5.38
2023-03-11T19:31:05.833Z,6.97
2023-03-11T19:33:33.779Z,4.22
2023-03-11T19:36:03.039Z,3.63
2023-03-11T19:38:32.719Z,4.40
2023-03-11T19:41:01.805Z,6.63
2023-03-11T19:43:29.478Z,4.70
2023-03-11T19:45:57.330Z,4.05
2023-03-11T19:48:25.122Z,3.63
2023-03-11T19:50:53.055Z,5.60
2023-03-11T19:53:22.717Z,6.13
2023-03-11T19:55:55.368Z,4.05
2023-03-11T19:58:24.902Z,5.97
2023-03-11T20:00:52.705Z,4.38
2023-03-11T20:03:21.959Z,2.92
2023-03-11T20:08:21.569Z,3.72
2023-03-11T20:10:52.289Z,2.50
2023-03-11T20:13:21.433Z,5.88
2023-03-11T20:15:49.575Z,10.82
2023-03-11T20:18:17.965Z,6.38
2023-03-11T20:20:46.639Z,9.35
2023-03-11T20:23:14.615Z,7.47
2023-03-11T20:25:42.204Z,6.47
2023-03-11T20:28:11.566Z,4.80
2023-03-11T20:30:39.431Z,7.25
2023-03-11T20:33:07.415Z,6.00
2023-03-11T20:35:35.110Z,7.88
2023-03-11T20:38:03.078Z,6.22
2023-03-11T20:40:30.787Z,8.80
2023-03-11T20:42:58.418Z,6.00
2023-03-11T20:45:27.398Z,8.38
2023-03-11T20:47:55.798Z,8.82
2023-03-11T20:50:23.484Z,7.60
2023-03-11T20:52:51.534Z,8.15
2023-03-11T20:55:19.267Z,5.68
2023-03-11T20:57:46.783Z,7.28
2023-03-11T21:00:14.928Z,8.52
2023-03-11T21:02:44.169Z,7.80
2023-03-11T21:05:12.597Z,10.77
2023-03-11T21:07:40.960Z,9.52
2023-03-11T21:10:10.990Z,10.23
2023-03-11T21:12:38.627Z,8.38
2023-03-11T21:15:07.796Z,7.28
2023-03-11T21:17:36.400Z,13.38
2023-03-11T21:20:06.341Z,10.77
2023-03-11T21:22:34.020Z,9.18
2023-03-11T21:25:01.607Z,8.85
2023-03-11T21:27:29.177Z,7.60
2023-03-11T21:29:57.928Z,9.77
2023-03-11T21:32:27.240Z,9.52
2023-03-11T21:34:55.752Z,8.65
2023-03-11T21:37:25.163Z,7.47
2023-03-11T21:42:20.583Z,8.35
2023-03-11T21:44:48.247Z,9.32
2023-03-11T21:47:15.685Z,8.95
2023-03-11T21:49:43.322Z,12.35
2023-03-11T21:52:10.751Z,13.23
2023-03-11T21:54:39.757Z,11.68
2023-03-11T21:57:07.479Z,10.52
2023-03-11T21:59:35.117Z,9.02
2023-03-11T22:02:03.269Z,9.15
2023-03-11T22:04:31.612Z,12.38
2023-03-11T22:06:59.251Z,9.18
2023-03-11T22:09:26.913Z,10.85
2023-03-11T22:11:56.315Z,8.20
2023-03-11T22:14:24.722Z,8.57
2023-03-11T22:16:52.373Z,11.55
2023-03-11T22:19:20.210Z,7.30
2023-03-11T22:21:49.007Z,10.40
2023-03-11T22:24:17.464Z,7.80
2023-03-11T22:26:44.856Z,12.20
2023-03-11T22:29:14.006Z,8.60
2023-03-11T22:31:41.467Z,9.05
2023-03-11T22:34:08.910Z,8.27
2023-03-11T22:36:36.336Z,8.57
2023-03-11T22:39:04.842Z,6.43
2023-03-11T22:41:33.022Z,6.95
2023-03-11T22:44:00.441Z,8.93
2023-03-11T22:46:29.770Z,7.85
2023-03-11T22:51:24.636Z,7.40
2023-03-11T22:53:51.996Z,7.15
2023-03-11T22:56:19.997Z,12.50
2023-03-11T22:58:47.582Z,8.60
2023-03-11T23:01:16.501Z,7.72
2023-03-11T23:03:45.737Z,12.70
2023-03-11T23:06:16.073Z,10.82
2023-03-11T23:08:43.956Z,7.95
2023-03-11T23:11:13.400Z,9.05
2023-03-11T23:16:12.323Z,6.47
2023-03-11T23:18:40.299Z,8.15
2023-03-11T23:21:16.701Z,8.38
2023-03-11T23:23:44.712Z,9.80
2023-03-11T23:26:12.989Z,9.98
2023-03-11T23:28:41.305Z,12.07
2023-03-11T23:31:10.356Z,10.18
2023-03-11T23:33:38.192Z,9.60
2023-03-11T23:36:08.621Z,7.38
2023-03-11T23:38:37.664Z,9.73
2023-03-11T23:41:08.809Z,14.13
2023-03-11T23:43:36.856Z,9.30
2023-03-11T23:46:04.986Z,8.80
2023-03-11T23:48:32.585Z,8.25
2023-03-11T23:51:00.328Z,8.90
2023-03-11T23:53:28.398Z,8.82
2023-03-11T23:55:57.298Z,6.07
2023-03-11T23:58:24.832Z,10.05
